createdAt,value
2019-01-22T00:00:52.137Z,99.99
2019-01-22T00:02:44.992Z,99.99
2019-01-22T00:03:44.869Z,99.99
2019-01-22T00:05:37.742Z,99.99
2019-01-22T00:06:37.613Z,99.99
2019-01-22T00:08:30.511Z,99.99
2019-01-22T00:09:30.395Z,99.99
2019-01-22T00:11:23.245Z,99.99
2019-01-22T00:12:23.137Z,99.99
2019-01-22T00:14:15.988Z,99.99
2019-01-22T00:15:15.867Z,99.99
2019-01-22T00:17:08.753Z,99.99
2019-01-22T00:18:08.618Z,99.99
2019-01-22T00:20:01.491Z,99.99
2019-01-22T00:21:01.352Z,99.99
2019-01-22T00:22:54.368Z,99.99
2019-01-22T00:23:54.209Z,99.99
2019-01-22T00:25:47.086Z,99.99
2019-01-22T00:26:46.963Z,99.99
2019-01-22T00:28:39.856Z,99.99
2019-01-22T00:29:39.705Z,99.99
2019-01-22T00:31:33.063Z,99.99
2019-01-22T00:32:32.456Z,99.99
2019-01-22T00:34:25.346Z,99.99
2019-01-22T00:35:25.222Z,99.99
2019-01-22T00:37:18.107Z,99.99
2019-01-22T00:38:17.966Z,99.99
2019-01-22T00:40:10.854Z,99.99
2019-01-22T00:41:10.728Z,99.99
2019-01-22T00:43:04.087Z,99.99
2019-01-22T00:44:03.463Z,99.99
2019-01-22T00:45:56.339Z,99.99
2019-01-22T00:46:56.205Z,99.99
2019-01-22T00:48:49.198Z,99.99
2019-01-22T00:49:49.057Z,99.99
2019-01-22T00:51:41.978Z,99.99
2019-01-22T00:52:41.825Z,99.99
2019-01-22T00:54:34.714Z,99.99
2019-01-22T00:55:34.572Z,99.99
2019-01-22T00:57:27.445Z,99.99
2019-01-22T00:58:27.308Z,99.99
2019-01-22T01:00:20.096Z,99.99
2019-01-22T01:01:19.963Z,99.99
2019-01-22T01:03:12.853Z,99.99
2019-01-22T01:04:12.714Z,99.99
2019-01-22T01:06:05.498Z,99.99
2019-01-22T01:07:05.357Z,99.99
2019-01-22T01:08:58.137Z,99.99
2019-01-22T01:09:58.007Z,99.99
2019-01-22T01:11:50.870Z,99.99
2019-01-22T01:12:50.765Z,99.99
2019-01-22T01:14:43.520Z,99.99
2019-01-22T01:15:43.398Z,99.99
2019-01-22T01:17:36.270Z,99.99
2019-01-22T01:18:36.148Z,99.99
2019-01-22T01:20:29.031Z,99.99
2019-01-22T01:21:28.920Z,99.99
2019-01-22T01:23:21.781Z,99.99
2019-01-22T01:24:21.639Z,99.99
2019-01-22T01:26:14.443Z,99.99
2019-01-22T01:27:14.302Z,99.99
2019-01-22T01:29:07.072Z,99.99
2019-01-22T01:30:06.942Z,99.99
2019-01-22T01:31:59.743Z,99.99
2019-01-22T01:33:00.184Z,99.99
2019-01-22T01:34:52.393Z,99.99
2019-01-22T01:35:52.233Z,99.99
2019-01-22T01:37:45.024Z,99.99
2019-01-22T01:38:44.884Z,99.99
2019-01-22T01:40:37.770Z,99.99
2019-01-22T01:41:37.627Z,99.99
2019-01-22T01:43:30.633Z,99.99
2019-01-22T01:44:30.490Z,99.99
2019-01-22T01:46:23.375Z,99.99
2019-01-22T01:47:23.226Z,99.99
2019-01-22T01:49:16.018Z,99.99
2019-01-22T01:50:15.889Z,99.99
2019-01-22T01:52:08.862Z,99.99
2019-01-22T01:53:08.731Z,99.99
2019-01-22T01:55:01.514Z,99.99
2019-01-22T01:56:01.380Z,99.99
2019-01-22T01:57:54.285Z,99.99
2019-01-22T01:58:54.118Z,99.99
2019-01-22T02:00:46.916Z,99.99
2019-01-22T02:01:46.774Z,99.99
2019-01-22T02:03:40.070Z,99.99
2019-01-22T02:04:39.932Z,99.99
2019-01-22T02:06:32.735Z,99.99
2019-01-22T02:07:32.605Z,99.99
2019-01-22T02:09:25.385Z,99.99
2019-01-22T02:10:25.259Z,99.99
2019-01-22T02:12:18.111Z,99.99
2019-01-22T02:13:17.971Z,99.99
2019-01-22T02:15:10.775Z,99.99
2019-01-22T02:16:10.623Z,99.99
2019-01-22T02:18:03.928Z,99.99
2019-01-22T02:19:03.783Z,99.99
2019-01-22T02:20:56.568Z,99.99
2019-01-22T02:21:56.440Z,99.99
2019-01-22T02:23:49.233Z,99.99
2019-01-22T02:24:49.096Z,99.99
2019-01-22T02:26:41.885Z,99.99
2019-01-22T02:27:41.735Z,99.99
2019-01-22T02:29:34.527Z,99.99
2019-01-22T02:30:34.387Z,99.99
2019-01-22T02:32:27.808Z,99.99
2019-01-22T02:33:27.042Z,99.99
2019-01-22T02:35:19.814Z,99.99
2019-01-22T02:36:19.681Z,99.99
2019-01-22T02:38:12.463Z,99.99
2019-01-22T02:39:12.345Z,99.99
2019-01-22T02:41:05.093Z,99.99
2019-01-22T02:42:04.964Z,99.99
2019-01-22T02:43:57.843Z,99.99
2019-01-22T02:44:57.726Z,99.99
2019-01-22T02:46:51.003Z,99.99
2019-01-22T02:47:50.867Z,99.99
2019-01-22T02:49:43.649Z,99.99
2019-01-22T02:50:43.521Z,99.99
2019-01-22T02:52:36.297Z,99.99
2019-01-22T02:53:38.782Z,99.99
2019-01-22T02:55:29.004Z,99.99
2019-01-22T02:56:28.832Z,99.99
2019-01-22T02:58:21.644Z,99.99
2019-01-22T02:59:21.479Z,99.99
2019-01-22T03:01:14.369Z,99.99
2019-01-22T03:02:14.215Z,99.99
2019-01-22T03:04:06.998Z,99.99
2019-01-22T03:05:06.854Z,99.99
2019-01-22T03:07:00.743Z,99.99
2019-01-22T03:07:59.509Z,99.99
2019-01-22T03:09:52.283Z,99.99
2019-01-22T03:10:52.166Z,99.99
2019-01-22T03:12:44.953Z,99.99
2019-01-22T03:13:44.803Z,99.99
2019-01-22T03:15:37.576Z,99.99
2019-01-22T03:16:37.454Z,99.99
2019-01-22T03:18:30.227Z,99.99
2019-01-22T03:19:30.109Z,99.99
2019-01-22T03:21:22.878Z,99.99
2019-01-22T03:22:22.745Z,99.99
2019-01-22T03:24:15.535Z,99.99
2019-01-22T03:25:15.412Z,99.99
2019-01-22T03:27:08.189Z,99.99
2019-01-22T03:28:08.037Z,99.99
2019-01-22T03:30:00.805Z,99.99
2019-01-22T03:31:00.681Z,99.99
2019-01-22T03:32:53.460Z,99.99
2019-01-22T03:33:53.331Z,99.99
2019-01-22T03:35:46.127Z,99.99
2019-01-22T03:36:45.971Z,99.99
2019-01-22T03:38:38.855Z,99.99
2019-01-22T03:39:38.728Z,99.99
2019-01-22T03:41:31.615Z,99.99
2019-01-22T03:42:31.481Z,99.99
2019-01-22T03:44:24.292Z,99.99
2019-01-22T03:45:24.122Z,99.99
2019-01-22T03:47:16.894Z,99.99
2019-01-22T03:48:16.775Z,99.99
2019-01-22T03:50:09.658Z,99.99
2019-01-22T03:51:09.538Z,99.99
2019-01-22T03:53:02.306Z,99.99
2019-01-22T03:54:02.172Z,99.99
2019-01-22T03:55:54.955Z,99.99
2019-01-22T03:56:54.839Z,99.99
2019-01-22T03:58:47.606Z,99.84
2019-01-22T03:59:47.481Z,99.27
2019-01-22T04:01:40.368Z,99.74
2019-01-22T04:02:40.277Z,99.99
2019-01-22T04:04:33.001Z,99.74
2019-01-22T04:05:32.871Z,99.99
2019-01-22T04:07:25.754Z,99.99
2019-01-22T04:08:25.608Z,99.55
2019-01-22T04:10:18.415Z,99.99
2019-01-22T04:11:18.257Z,99.37
2019-01-22T04:13:11.135Z,98.99
2019-01-22T04:14:11.005Z,99.37
2019-01-22T04:16:03.802Z,98.33
2019-01-22T04:17:03.696Z,98.23
2019-01-22T04:18:56.538Z,99.27
2019-01-22T04:19:56.403Z,98.90
2019-01-22T04:21:49.214Z,98.42
2019-01-22T04:22:49.047Z,98.23
2019-01-22T04:24:41.827Z,98.04
2019-01-22T04:25:41.710Z,98.23
2019-01-22T04:27:35.594Z,97.76
2019-01-22T04:28:35.466Z,98.23
2019-01-22T04:30:28.355Z,97.48
2019-01-22T04:31:28.230Z,97.61
2019-01-22T04:33:21.029Z,98.09
2019-01-22T04:34:20.864Z,97.61
2019-01-22T04:36:13.749Z,97.61
2019-01-22T04:37:13.620Z,97.52
2019-01-22T04:39:07.157Z,97.05
2019-01-22T04:40:06.280Z,96.77
2019-01-22T04:41:59.061Z,96.20
2019-01-22T04:42:58.913Z,96.67
2019-01-22T04:44:51.696Z,96.48
2019-01-22T04:45:51.562Z,95.64
2019-01-22T04:47:44.441Z,95.45
2019-01-22T04:48:44.322Z,96.11
2019-01-22T04:50:37.108Z,96.11
2019-01-22T04:51:36.950Z,95.64
2019-01-22T04:53:29.947Z,95.73
2019-01-22T04:54:29.800Z,95.83
2019-01-22T04:56:22.583Z,96.20
2019-01-22T04:57:22.455Z,96.67
2019-01-22T04:59:15.248Z,96.67
2019-01-22T05:00:15.112Z,96.67
2019-01-22T05:02:07.981Z,95.45
2019-01-22T05:03:07.842Z,94.98
2019-01-22T05:05:00.626Z,94.98
2019-01-22T05:06:00.503Z,94.98
2019-01-22T05:07:53.385Z,94.79
2019-01-22T05:08:53.261Z,94.41
2019-01-22T05:10:46.027Z,94.13
2019-01-22T05:11:45.889Z,94.41
2019-01-22T05:13:38.669Z,94.51
2019-01-22T05:14:38.534Z,94.32
2019-01-22T05:16:31.415Z,94.51
2019-01-22T05:17:31.288Z,94.69
2019-01-22T05:19:24.074Z,93.65
2019-01-22T05:20:23.932Z,93.84
2019-01-22T05:22:16.727Z,93.37
2019-01-22T05:23:16.629Z,93.47
2019-01-22T05:25:09.476Z,93.47
2019-01-22T05:26:09.328Z,93.84
2019-01-22T05:28:02.114Z,93.37
2019-01-22T05:29:01.977Z,93.18
2019-01-22T05:30:54.842Z,93.23
2019-01-22T05:31:54.670Z,93.04
2019-01-22T05:33:47.511Z,92.90
2019-01-22T05:34:47.369Z,91.67
2019-01-22T05:36:40.166Z,91.72
2019-01-22T05:37:40.036Z,91.91
2019-01-22T05:39:32.930Z,91.82
2019-01-22T05:40:32.769Z,91.16
2019-01-22T05:42:25.553Z,90.97
2019-01-22T05:43:25.420Z,91.25
2019-01-22T05:45:18.326Z,91.16
2019-01-22T05:46:18.195Z,91.44
2019-01-22T05:48:13.435Z,90.22
2019-01-22T05:49:10.826Z,90.12
2019-01-22T05:51:03.706Z,90.50
2019-01-22T05:52:03.564Z,90.69
2019-01-22T05:53:56.440Z,91.16
2019-01-22T05:54:56.317Z,91.44
2019-01-22T05:56:49.114Z,90.41
2019-01-22T05:57:48.962Z,89.93
2019-01-22T05:59:41.862Z,90.22
2019-01-22T06:00:41.725Z,90.22
2019-01-22T06:02:34.597Z,90.22
2019-01-22T06:03:34.467Z,89.84
2019-01-22T06:05:27.346Z,89.74
2019-01-22T06:06:27.207Z,89.46
2019-01-22T06:08:19.993Z,89.46
2019-01-22T06:09:19.857Z,89.74
2019-01-22T06:11:12.743Z,89.93
2019-01-22T06:12:12.606Z,90.59
2019-01-22T06:14:05.389Z,91.44
2019-01-22T06:15:05.268Z,91.49
2019-01-22T06:16:58.052Z,91.44
2019-01-22T06:17:57.914Z,91.58
2019-01-22T06:19:50.812Z,91.58
2019-01-22T06:20:50.658Z,91.67
2019-01-22T06:22:43.538Z,93.65
2019-01-22T06:23:43.406Z,93.18
2019-01-22T06:25:36.271Z,94.36
2019-01-22T06:26:36.163Z,95.12
2019-01-22T06:28:29.036Z,93.94
2019-01-22T06:29:28.894Z,93.94
2019-01-22T06:31:21.807Z,94.79
2019-01-22T06:32:21.645Z,95.21
2019-01-22T06:34:14.544Z,96.15
2019-01-22T06:35:14.390Z,95.12
2019-01-22T06:37:07.285Z,94.98
2019-01-22T06:38:07.148Z,94.08
2019-01-22T06:40:00.037Z,95.12
2019-01-22T06:40:59.913Z,94.93
2019-01-22T06:42:52.772Z,95.50
2019-01-22T06:43:52.646Z,95.68
2019-01-22T06:45:45.419Z,95.68
2019-01-22T06:46:45.293Z,95.40
2019-01-22T06:48:38.173Z,96.81
2019-01-22T06:49:38.047Z,96.72
2019-01-22T06:51:30.921Z,96.53
2019-01-22T06:52:30.789Z,97.09
2019-01-22T06:54:23.670Z,97.00
2019-01-22T06:55:23.547Z,97.19
2019-01-22T06:57:16.440Z,97.56
2019-01-22T06:58:16.288Z,98.47
2019-01-22T07:00:09.182Z,97.85
2019-01-22T07:01:09.036Z,97.99
2019-01-22T07:03:01.932Z,98.60
2019-01-22T07:04:01.810Z,99.55
2019-01-22T07:05:54.688Z,99.51
2019-01-22T07:06:54.542Z,99.88
2019-01-22T07:08:47.459Z,99.99
2019-01-22T07:09:47.294Z,99.99
2019-01-22T07:11:40.179Z,99.99
2019-01-22T07:12:40.045Z,99.99
2019-01-22T07:14:32.917Z,99.99
2019-01-22T07:15:32.790Z,99.99
2019-01-22T07:17:25.676Z,99.99
2019-01-22T07:18:25.537Z,99.99
2019-01-22T07:20:18.428Z,99.99
2019-01-22T07:21:18.299Z,99.99
2019-01-22T07:23:11.179Z,99.99
2019-01-22T07:24:11.032Z,99.99
2019-01-22T07:26:03.928Z,99.99
2019-01-22T07:27:03.783Z,99.99
2019-01-22T07:28:56.672Z,99.99
2019-01-22T07:29:56.541Z,99.99
2019-01-22T07:31:49.440Z,99.99
2019-01-22T07:32:49.280Z,99.99
2019-01-22T07:34:42.180Z,99.99
2019-01-22T07:35:42.035Z,99.99
2019-01-22T07:37:34.927Z,99.99
2019-01-22T07:38:34.789Z,99.99
2019-01-22T07:40:27.664Z,99.99
2019-01-22T07:41:27.533Z,99.99
2019-01-22T07:43:20.427Z,99.99
2019-01-22T07:44:20.280Z,99.99
2019-01-22T07:46:13.192Z,99.99
2019-01-22T07:47:13.032Z,99.99
2019-01-22T07:49:05.921Z,99.99
2019-01-22T07:50:05.781Z,99.99
2019-01-22T07:51:58.659Z,99.99
2019-01-22T07:52:58.542Z,99.99
2019-01-22T07:54:53.955Z,99.99
2019-01-22T07:55:51.284Z,99.99
2019-01-22T07:57:58.331Z,99.99
2019-01-22T07:58:58.166Z,99.99
2019-01-22T08:00:51.554Z,99.99
2019-01-22T08:01:51.434Z,99.99
2019-01-22T08:03:44.839Z,99.99
2019-01-22T08:04:44.719Z,99.99
2019-01-22T08:06:39.009Z,99.99
2019-01-22T08:07:38.868Z,99.99
2019-01-22T08:09:42.811Z,99.99
2019-01-22T08:10:42.687Z,99.99
2019-01-22T08:12:43.059Z,99.99
2019-01-22T08:13:42.906Z,99.99
2019-01-22T08:16:09.387Z,99.99
2019-01-22T08:17:09.247Z,99.99
2019-01-22T08:19:05.093Z,99.99
2019-01-22T08:20:04.967Z,99.99
2019-01-22T08:21:58.270Z,99.99
2019-01-22T08:22:58.135Z,99.99
2019-01-22T08:24:52.445Z,99.99
2019-01-22T08:25:52.315Z,99.99
2019-01-22T08:27:45.181Z,99.99
2019-01-22T08:28:45.049Z,99.99
2019-01-22T08:30:37.958Z,99.99
2019-01-22T08:31:37.797Z,99.99
2019-01-22T08:33:30.692Z,99.99
2019-01-22T08:34:30.571Z,99.99
2019-01-22T08:36:23.452Z,99.99
2019-01-22T08:37:23.318Z,99.99
2019-01-22T08:39:16.192Z,99.99
2019-01-22T08:40:16.049Z,99.99
2019-01-22T08:42:08.942Z,99.99
2019-01-22T08:43:08.796Z,99.99
2019-01-22T08:45:01.703Z,99.99
2019-01-22T08:46:01.548Z,99.99
2019-01-22T08:47:54.442Z,99.99
2019-01-22T08:48:54.320Z,99.99
2019-01-22T08:50:47.230Z,99.99
2019-01-22T08:51:47.049Z,99.99
2019-01-22T08:53:40.342Z,99.99
2019-01-22T08:54:40.218Z,99.99
2019-01-22T08:56:33.094Z,99.99
2019-01-22T08:57:37.505Z,99.99
2019-01-22T08:59:25.867Z,99.99
2019-01-22T09:00:25.721Z,99.99
2019-01-22T09:02:18.585Z,99.99
2019-01-22T09:03:18.475Z,99.99
2019-01-22T09:05:11.345Z,99.99
2019-01-22T09:06:11.213Z,99.99
2019-01-22T09:08:04.092Z,99.99
2019-01-22T09:09:03.974Z,99.99
2019-01-22T09:10:57.504Z,99.99
2019-01-22T09:11:57.331Z,99.99
2019-01-22T09:13:50.197Z,99.99
2019-01-22T09:14:50.067Z,99.99
2019-01-22T09:16:42.973Z,99.99
2019-01-22T09:17:42.814Z,99.99
2019-01-22T09:19:35.704Z,99.99
2019-01-22T09:20:35.573Z,99.99
2019-01-22T09:22:28.443Z,99.98
2019-01-22T09:23:28.320Z,99.99
2019-01-22T09:25:21.252Z,99.99
2019-01-22T09:26:21.083Z,99.99
2019-01-22T09:28:13.978Z,99.99
2019-01-22T09:29:13.837Z,99.99
2019-01-22T09:31:06.725Z,98.94
2019-01-22T09:32:06.585Z,98.47
2019-01-22T09:33:59.457Z,98.33
2019-01-22T09:34:59.318Z,98.05
2019-01-22T09:36:52.211Z,97.01
2019-01-22T09:37:52.070Z,97.10
2019-01-22T09:39:44.998Z,97.20
2019-01-22T09:40:44.823Z,96.44
2019-01-22T09:42:37.804Z,96.35
2019-01-22T09:43:37.672Z,96.06
2019-01-22T09:45:30.651Z,95.59
2019-01-22T09:46:30.535Z,95.68
2019-01-22T09:48:23.413Z,94.56
2019-01-22T09:49:23.291Z,93.94
2019-01-22T09:51:16.169Z,91.96
2019-01-22T09:52:16.044Z,90.73
2019-01-22T09:54:09.472Z,90.44
2019-01-22T09:55:08.998Z,89.97
2019-01-22T09:57:01.748Z,89.59
2019-01-22T09:58:01.632Z,88.17
2019-01-22T09:59:55.374Z,85.05
2019-01-22T10:00:54.380Z,83.45
2019-01-22T10:02:47.263Z,82.22
2019-01-22T10:03:47.131Z,81.18
2019-01-22T10:05:40.019Z,79.29
2019-01-22T10:06:39.876Z,78.72
2019-01-22T10:08:32.784Z,78.67
2019-01-22T10:09:32.628Z,78.53
2019-01-22T10:11:25.509Z,79.33
2019-01-22T10:12:25.373Z,78.76
2019-01-22T10:14:18.273Z,77.82
2019-01-22T10:15:18.145Z,77.82
2019-01-22T10:17:11.014Z,77.44
2019-01-22T10:18:10.884Z,78.01
2019-01-22T10:20:03.788Z,78.10
2019-01-22T10:21:03.623Z,78.67
2019-01-22T10:22:56.514Z,81.60
2019-01-22T10:23:56.369Z,82.73
2019-01-22T10:25:49.272Z,84.72
2019-01-22T10:26:49.123Z,84.53
2019-01-22T10:28:42.009Z,85.10
2019-01-22T10:29:41.888Z,84.53
2019-01-22T10:31:34.747Z,85.10
2019-01-22T10:32:34.623Z,83.21
2019-01-22T10:34:27.516Z,80.27
2019-01-22T10:35:27.369Z,80.51
2019-01-22T10:37:20.272Z,82.31
2019-01-22T10:38:20.125Z,82.21
2019-01-22T10:40:13.015Z,83.78
2019-01-22T10:41:12.883Z,83.87
2019-01-22T10:43:09.320Z,83.49
2019-01-22T10:44:05.623Z,83.53
2019-01-22T10:45:58.540Z,82.31
2019-01-22T10:46:58.365Z,82.59
2019-01-22T10:48:51.282Z,82.59
2019-01-22T10:49:51.135Z,82.40
2019-01-22T10:51:44.011Z,81.93
2019-01-22T10:52:43.882Z,81.07
2019-01-22T10:54:36.742Z,80.79
2019-01-22T10:55:36.636Z,80.60
2019-01-22T10:57:29.510Z,81.07
2019-01-22T10:58:29.378Z,80.60
2019-01-22T11:00:22.371Z,80.32
2019-01-22T11:01:22.224Z,79.66
2019-01-22T11:03:15.109Z,80.04
2019-01-22T11:04:14.968Z,79.66
2019-01-22T11:06:07.871Z,79.18
2019-01-22T11:07:08.219Z,79.47
2019-01-22T11:09:00.615Z,78.23
2019-01-22T11:10:00.474Z,78.14
2019-01-22T11:11:53.359Z,79.03
2019-01-22T11:12:53.216Z,79.09
2019-01-22T11:14:46.123Z,79.03
2019-01-22T11:15:45.970Z,78.94
2019-01-22T11:17:38.868Z,77.99
2019-01-22T11:18:38.724Z,78.37
2019-01-22T11:20:32.215Z,77.89
2019-01-22T11:21:32.085Z,77.33
2019-01-22T11:23:24.963Z,77.33
2019-01-22T11:24:30.254Z,76.76
2019-01-22T11:26:17.712Z,76.19
2019-01-22T11:27:17.598Z,76.10
2019-01-22T11:29:10.464Z,75.43
2019-01-22T11:30:10.329Z,75.53
2019-01-22T11:32:03.227Z,75.43
2019-01-22T11:33:03.081Z,74.68
2019-01-22T11:34:55.983Z,74.49
2019-01-22T11:35:55.826Z,74.58
2019-01-22T11:37:48.756Z,74.49
2019-01-22T11:38:48.591Z,73.64
2019-01-22T11:40:41.472Z,73.83
2019-01-22T11:41:41.334Z,74.24
2019-01-22T11:43:34.232Z,73.11
2019-01-22T11:44:34.096Z,73.49
2019-01-22T11:46:26.958Z,73.58
2019-01-22T11:47:26.842Z,73.58
2019-01-22T11:49:23.330Z,72.44
2019-01-22T11:50:19.594Z,72.16
2019-01-22T11:52:12.471Z,70.74
2019-01-22T11:53:12.326Z,71.31
2019-01-22T11:55:05.230Z,70.45
2019-01-22T11:56:05.080Z,70.83
2019-01-22T11:57:57.950Z,71.31
2019-01-22T11:58:57.832Z,70.36
2019-01-22T12:00:50.810Z,70.64
2019-01-22T12:01:50.698Z,70.45
2019-01-22T12:03:43.587Z,69.98
2019-01-22T12:04:43.432Z,69.98
2019-01-22T12:06:36.327Z,69.13
2019-01-22T12:07:36.178Z,69.41
2019-01-22T12:09:29.068Z,68.65
2019-01-22T12:10:28.938Z,68.18
2019-01-22T12:12:22.032Z,68.56
2019-01-22T12:13:21.943Z,68.56
2019-01-22T12:15:14.557Z,67.99
2019-01-22T12:16:14.428Z,68.02
2019-01-22T12:18:07.329Z,68.21
2019-01-22T12:19:07.177Z,67.36
2019-01-22T12:21:00.079Z,65.47
2019-01-22T12:22:00.124Z,65.56
2019-01-22T12:23:52.817Z,64.52
2019-01-22T12:24:52.687Z,64.42
2019-01-22T12:26:45.560Z,63.39
2019-01-22T12:27:45.442Z,63.85
2019-01-22T12:29:38.338Z,64.04
2019-01-22T12:30:38.188Z,64.71
2019-01-22T12:32:31.066Z,64.81
2019-01-22T12:33:30.944Z,64.42
2019-01-22T12:35:23.810Z,64.52
2019-01-22T12:36:23.679Z,64.23
2019-01-22T12:38:16.548Z,62.62
2019-01-22T12:39:16.438Z,62.78
2019-01-22T12:41:09.305Z,63.29
2019-01-22T12:42:09.174Z,63.76
2019-01-22T12:44:02.088Z,63.95
2019-01-22T12:45:01.970Z,64.04
2019-01-22T12:46:54.805Z,64.23
2019-01-22T12:47:54.693Z,64.42
2019-01-22T12:49:47.560Z,63.95
2019-01-22T12:50:47.444Z,63.67
2019-01-22T12:52:40.324Z,64.23
2019-01-22T12:53:40.192Z,64.52
2019-01-22T12:55:33.073Z,64.81
2019-01-22T12:56:32.939Z,64.90
2019-01-22T12:58:25.816Z,64.33
2019-01-22T12:59:25.683Z,64.81
2019-01-22T13:01:18.553Z,63.95
2019-01-22T13:02:18.430Z,63.10
2019-01-22T13:04:11.307Z,60.92
2019-01-22T13:05:11.177Z,60.44
2019-01-22T13:07:04.049Z,60.73
2019-01-22T13:08:04.421Z,61.02
2019-01-22T13:09:56.828Z,62.72
2019-01-22T13:10:56.684Z,63.76
2019-01-22T13:12:49.551Z,63.67
2019-01-22T13:13:49.429Z,63.85
2019-01-22T13:15:42.302Z,62.34
2019-01-22T13:16:42.178Z,62.15
2019-01-22T13:18:35.064Z,60.06
2019-01-22T13:19:34.926Z,60.16
2019-01-22T13:21:27.823Z,60.92
2019-01-22T13:22:27.681Z,60.92
2019-01-22T13:24:21.619Z,60.44
2019-01-22T13:25:20.431Z,59.97
2019-01-22T13:27:13.292Z,58.84
2019-01-22T13:28:13.173Z,58.65
2019-01-22T13:30:06.064Z,59.41
2019-01-22T13:31:05.940Z,60.16
2019-01-22T13:32:58.810Z,60.32
2019-01-22T13:33:58.671Z,59.84
2019-01-22T13:35:52.170Z,60.22
2019-01-22T13:36:51.419Z,59.56
2019-01-22T13:38:44.302Z,58.52
2019-01-22T13:39:44.169Z,58.81
2019-01-22T13:41:37.057Z,60.13
2019-01-22T13:42:36.915Z,60.22
2019-01-22T13:44:29.812Z,59.50
2019-01-22T13:45:29.664Z,59.31
2019-01-22T13:47:22.560Z,59.31
2019-01-22T13:48:22.425Z,58.65
2019-01-22T13:50:15.302Z,58.55
2019-01-22T13:51:15.168Z,58.55
2019-01-22T13:53:08.148Z,57.32
2019-01-22T13:54:07.953Z,57.04
2019-01-22T13:56:00.920Z,57.23
2019-01-22T13:57:00.784Z,57.42
2019-01-22T13:58:53.651Z,57.13
2019-01-22T13:59:53.791Z,57.13
2019-01-22T14:01:46.401Z,57.39
2019-01-22T14:02:46.279Z,58.17
2019-01-22T14:04:39.660Z,59.12
2019-01-22T14:05:39.554Z,59.31
2019-01-22T14:07:32.426Z,59.41
2019-01-22T14:08:32.300Z,59.41
2019-01-22T14:10:25.161Z,60.54
2019-01-22T14:11:25.034Z,59.69
2019-01-22T14:13:18.028Z,59.12
2019-01-22T14:14:17.880Z,59.03
2019-01-22T14:16:10.781Z,59.88
2019-01-22T14:17:10.638Z,60.83
2019-01-22T14:19:03.511Z,63.76
2019-01-22T14:20:03.380Z,64.68
2019-01-22T14:21:56.272Z,65.63
2019-01-22T14:22:56.140Z,66.09
2019-01-22T14:24:49.028Z,66.38
2019-01-22T14:25:48.882Z,66.76
2019-01-22T14:27:41.759Z,67.71
2019-01-22T14:28:41.635Z,67.80
2019-01-22T14:30:34.527Z,68.37
2019-01-22T14:31:34.396Z,68.37
2019-01-22T14:33:27.252Z,68.94
2019-01-22T14:34:27.138Z,69.89
2019-01-22T14:36:20.025Z,70.26
2019-01-22T14:37:19.889Z,70.74
2019-01-22T14:39:12.815Z,71.78
2019-01-22T14:40:12.645Z,71.88
2019-01-22T14:42:05.516Z,72.82
2019-01-22T14:43:05.379Z,73.30
2019-01-22T14:44:58.260Z,73.20
2019-01-22T14:45:58.135Z,72.92
2019-01-22T14:47:51.042Z,74.21
2019-01-22T14:48:50.908Z,75.15
2019-01-22T14:50:43.768Z,75.43
2019-01-22T14:51:43.624Z,76.10
2019-01-22T14:53:36.419Z,76.00
2019-01-22T14:54:36.273Z,76.10
2019-01-22T14:56:32.639Z,77.42
2019-01-22T14:57:29.041Z,78.27
2019-01-22T14:59:21.802Z,79.03
2019-01-22T15:00:21.674Z,80.04
2019-01-22T15:02:14.448Z,81.55
2019-01-22T15:03:14.366Z,82.50
2019-01-22T15:05:07.112Z,82.21
2019-01-22T15:06:06.970Z,82.40
2019-01-22T15:07:59.768Z,83.15
2019-01-22T15:08:59.694Z,83.72
2019-01-22T15:10:52.388Z,83.06
2019-01-22T15:11:52.259Z,84.10
2019-01-22T15:13:45.045Z,85.80
2019-01-22T15:14:44.904Z,86.37
2019-01-22T15:16:38.310Z,88.03
2019-01-22T15:17:38.182Z,88.22
2019-01-22T15:19:31.058Z,89.07
2019-01-22T15:20:30.928Z,89.26
2019-01-22T15:22:23.692Z,90.01
2019-01-22T15:23:23.565Z,89.83
2019-01-22T15:25:16.361Z,90.68
2019-01-22T15:26:16.225Z,91.15
2019-01-22T15:28:09.083Z,93.32
2019-01-22T15:29:08.962Z,94.18
2019-01-22T15:31:02.301Z,94.18
2019-01-22T15:32:02.125Z,94.18
2019-01-22T15:33:54.892Z,94.03
2019-01-22T15:34:54.765Z,94.56
2019-01-22T15:36:47.555Z,94.70
2019-01-22T15:37:47.438Z,95.07
2019-01-22T15:39:40.198Z,95.73
2019-01-22T15:40:40.079Z,95.83
2019-01-22T15:42:32.947Z,96.87
2019-01-22T15:43:32.816Z,96.59
2019-01-22T15:45:25.605Z,96.78
2019-01-22T15:46:25.458Z,96.30
2019-01-22T15:48:18.245Z,97.72
2019-01-22T15:49:18.103Z,98.66
2019-01-22T15:51:11.187Z,98.47
2019-01-22T15:52:11.052Z,99.89
2019-01-22T15:54:03.843Z,99.80
2019-01-22T15:55:03.716Z,99.99
2019-01-22T15:56:56.494Z,99.71
2019-01-22T15:57:56.362Z,99.71
2019-01-22T15:59:49.265Z,99.71
2019-01-22T16:00:49.124Z,98.85
2019-01-22T16:02:41.884Z,98.57
2019-01-22T16:03:41.766Z,98.38
2019-01-22T16:05:34.530Z,98.76
2019-01-22T16:06:34.404Z,98.76
2019-01-22T16:08:27.193Z,98.76
2019-01-22T16:09:27.114Z,98.80
2019-01-22T16:11:19.841Z,99.65
2019-01-22T16:12:19.732Z,99.27
2019-01-22T16:14:12.472Z,99.37
2019-01-22T16:15:12.345Z,99.37
2019-01-22T16:17:05.220Z,99.18
2019-01-22T16:18:05.086Z,99.75
2019-01-22T16:19:57.855Z,99.46
2019-01-22T16:20:57.752Z,99.56
2019-01-22T16:22:50.651Z,99.84
2019-01-22T16:23:50.479Z,99.75
2019-01-22T16:25:43.290Z,99.99
2019-01-22T16:26:43.144Z,99.99
2019-01-22T16:28:35.897Z,99.99
2019-01-22T16:29:35.800Z,99.99
2019-01-22T16:31:28.561Z,99.99
2019-01-22T16:32:28.446Z,99.99
2019-01-22T16:34:21.211Z,99.99
2019-01-22T16:35:21.075Z,99.99
2019-01-22T16:37:13.860Z,99.99
2019-01-22T16:38:13.726Z,99.99
2019-01-22T16:40:06.523Z,99.99
2019-01-22T16:41:06.372Z,99.99
2019-01-22T16:42:59.157Z,99.99
2019-01-22T16:43:59.022Z,99.99
2019-01-22T16:45:51.908Z,99.99
2019-01-22T16:46:51.802Z,99.99
2019-01-22T16:48:44.559Z,99.99
2019-01-22T16:49:44.418Z,99.99
2019-01-22T16:51:37.206Z,99.99
2019-01-22T16:52:37.071Z,99.99
2019-01-22T16:54:29.864Z,99.99
2019-01-22T16:55:29.716Z,99.99
2019-01-22T16:57:22.505Z,99.99
2019-01-22T16:58:22.356Z,99.99
2019-01-22T17:00:15.133Z,99.99
2019-01-22T17:01:15.003Z,99.99
2019-01-22T17:03:07.777Z,99.99
2019-01-22T17:04:07.653Z,99.99
2019-01-22T17:06:00.442Z,99.99
2019-01-22T17:07:00.298Z,99.99
2019-01-22T17:08:53.077Z,99.99
2019-01-22T17:09:52.942Z,99.99
2019-01-22T17:11:45.736Z,99.99
2019-01-22T17:12:45.588Z,99.99
2019-01-22T17:14:38.465Z,99.99
2019-01-22T17:15:38.345Z,99.99
2019-01-22T17:17:31.132Z,99.99
2019-01-22T17:18:30.996Z,99.99
2019-01-22T17:20:23.782Z,99.99
2019-01-22T17:21:23.630Z,99.99
2019-01-22T17:23:16.854Z,99.99
2019-01-22T17:24:16.281Z,99.99
2019-01-22T17:26:09.606Z,99.99
2019-01-22T17:27:09.451Z,99.99
2019-01-22T17:29:02.234Z,99.99
2019-01-22T17:30:02.096Z,99.99
2019-01-22T17:31:54.894Z,99.99
2019-01-22T17:32:54.733Z,99.99
2019-01-22T17:34:47.628Z,99.99
2019-01-22T17:35:47.480Z,99.99
2019-01-22T17:37:40.264Z,99.99
2019-01-22T17:38:40.131Z,99.99
2019-01-22T17:40:32.917Z,99.99
2019-01-22T17:41:32.787Z,99.99
2019-01-22T17:43:25.562Z,99.99
2019-01-22T17:44:25.429Z,99.99
2019-01-22T17:46:18.217Z,99.99
2019-01-22T17:47:18.073Z,99.99
2019-01-22T17:49:10.857Z,99.99
2019-01-22T17:50:11.096Z,99.99
2019-01-22T17:52:03.500Z,99.99
2019-01-22T17:53:07.507Z,99.99
2019-01-22T17:54:56.259Z,99.99
2019-01-22T17:55:56.134Z,99.99
2019-01-22T17:57:48.921Z,99.99
2019-01-22T17:58:48.779Z,99.99
2019-01-22T18:00:41.694Z,99.99
2019-01-22T18:01:41.511Z,99.99
2019-01-22T18:03:34.307Z,99.99
2019-01-22T18:04:34.163Z,99.99
2019-01-22T18:06:26.948Z,99.99
2019-01-22T18:07:26.808Z,99.99
2019-01-22T18:09:19.690Z,99.99
2019-01-22T18:10:19.556Z,99.99
2019-01-22T18:12:12.356Z,99.99
2019-01-22T18:13:12.211Z,99.99
2019-01-22T18:15:05.097Z,99.99
2019-01-22T18:16:04.950Z,99.99
2019-01-22T18:17:58.263Z,99.99
2019-01-22T18:18:58.118Z,99.99
2019-01-22T18:20:50.999Z,99.99
2019-01-22T18:21:50.863Z,99.99
2019-01-22T18:23:43.763Z,99.99
2019-01-22T18:24:43.630Z,99.99
2019-01-22T18:26:36.425Z,99.99
2019-01-22T18:27:36.264Z,99.99
2019-01-22T18:29:29.069Z,99.99
2019-01-22T18:30:28.915Z,99.99
2019-01-22T18:32:21.808Z,99.99
2019-01-22T18:33:21.653Z,99.99